createdAt,value
2018-09-06T00:01:23.775Z,17.00
2018-09-06T00:03:58.982Z,17.47
2018-09-06T00:06:34.475Z,17.50
2018-09-06T00:09:10.255Z,17.43
2018-09-06T00:11:46.012Z,17.73
2018-09-06T00:14:20.799Z,16.33
2018-09-06T00:16:56.126Z,17.07
2018-09-06T00:19:31.115Z,19.57
2018-09-06T00:22:06.913Z,18.97
2018-09-06T00:24:42.217Z,17.20
2018-09-06T00:27:17.058Z,17.17
2018-09-06T00:29:52.005Z,17.07
2018-09-06T00:32:26.925Z,17.10
2018-09-06T00:35:01.759Z,15.73
2018-09-06T00:37:36.667Z,17.17
2018-09-06T00:40:11.799Z,18.13
2018-09-06T00:42:46.547Z,16.43
2018-09-06T00:45:21.360Z,18.67
2018-09-06T00:47:56.187Z,17.77
2018-09-06T00:50:36.243Z,18.07
2018-09-06T00:53:11.034Z,16.37
2018-09-06T00:55:45.873Z,16.13
2018-09-06T00:58:20.898Z,20.37
2018-09-06T01:00:55.781Z,17.37
2018-09-06T01:03:30.679Z,17.77
2018-09-06T01:06:05.809Z,19.33
2018-09-06T01:08:40.712Z,17.97
2018-09-06T01:11:15.972Z,17.83
2018-09-06T01:13:51.097Z,17.03
2018-09-06T01:16:26.024Z,18.57
2018-09-06T01:19:00.820Z,18.00
2018-09-06T01:21:35.558Z,15.07
2018-09-06T01:24:10.270Z,15.53
2018-09-06T01:26:45.066Z,17.90
2018-09-06T01:29:20.203Z,16.87
2018-09-06T01:31:54.876Z,17.57
2018-09-06T01:34:30.008Z,16.80
2018-09-06T01:37:08.918Z,15.63
2018-09-06T01:39:43.822Z,16.20
2018-09-06T01:42:18.665Z,18.60
2018-09-06T01:44:53.436Z,18.00
2018-09-06T01:47:28.268Z,17.50
2018-09-06T01:50:03.144Z,17.70
2018-09-06T01:52:38.006Z,17.80
2018-09-06T01:55:12.825Z,17.00
2018-09-06T01:57:47.847Z,17.50
2018-09-06T02:00:22.973Z,20.97
2018-09-06T02:02:57.787Z,18.03
2018-09-06T02:05:36.994Z,18.30
2018-09-06T02:08:11.765Z,17.07
2018-09-06T02:10:46.758Z,17.47
2018-09-06T02:13:21.737Z,17.27
2018-09-06T02:15:57.028Z,16.13
2018-09-06T02:18:32.887Z,16.23
2018-09-06T02:21:07.803Z,16.43
2018-09-06T02:23:42.574Z,17.10
2018-09-06T02:26:17.286Z,16.93
2018-09-06T02:28:52.556Z,15.77
2018-09-06T02:31:27.297Z,18.60
2018-09-06T02:34:01.973Z,17.37
2018-09-06T02:36:36.924Z,19.17
2018-09-06T02:39:12.418Z,18.70
2018-09-06T02:41:47.074Z,21.27
2018-09-06T02:44:22.153Z,20.13
2018-09-06T02:46:57.160Z,17.53
2018-09-06T02:49:37.331Z,18.00
2018-09-06T02:52:12.272Z,18.13
2018-09-06T02:54:47.394Z,16.87
2018-09-06T02:57:23.471Z,19.10
2018-09-06T02:59:58.494Z,18.77
2018-09-06T03:02:33.264Z,19.43
2018-09-06T03:05:08.040Z,20.27
2018-09-06T03:07:42.839Z,19.43
2018-09-06T03:10:18.057Z,19.03
2018-09-06T03:12:53.475Z,18.47
2018-09-06T03:15:28.287Z,18.13
2018-09-06T03:18:10.195Z,17.80
2018-09-06T03:20:45.027Z,18.27
2018-09-06T03:23:19.964Z,18.43
2018-09-06T03:25:54.890Z,17.37
2018-09-06T03:28:29.978Z,16.77
2018-09-06T03:31:04.785Z,17.80
2018-09-06T03:33:39.868Z,17.77
2018-09-06T03:36:15.625Z,18.00
2018-09-06T03:38:51.085Z,16.77
2018-09-06T03:41:25.894Z,17.23
2018-09-06T03:44:00.870Z,18.67
2018-09-06T03:46:35.668Z,19.13
2018-09-06T03:49:10.478Z,23.23
2018-09-06T03:51:45.406Z,19.90
2018-09-06T03:54:20.321Z,23.93
2018-09-06T03:56:55.314Z,22.60
2018-09-06T03:59:30.673Z,21.93
2018-09-06T04:02:05.434Z,20.83
2018-09-06T04:04:47.025Z,20.17
2018-09-06T04:07:21.730Z,20.13
2018-09-06T04:10:00.086Z,19.27
2018-09-06T04:12:35.238Z,18.50
2018-09-06T04:15:10.078Z,19.63
2018-09-06T04:17:45.101Z,20.90
2018-09-06T04:20:19.850Z,21.37
2018-09-06T04:22:54.685Z,20.30
2018-09-06T04:25:29.497Z,21.13
2018-09-06T04:28:04.694Z,20.33
2018-09-06T04:30:39.783Z,22.77
2018-09-06T04:33:14.750Z,22.57
2018-09-06T04:35:49.429Z,20.87
2018-09-06T04:38:25.024Z,22.87
2018-09-06T04:41:00.027Z,20.03
2018-09-06T04:43:34.885Z,19.50
2018-09-06T04:46:10.302Z,18.43
2018-09-06T04:48:45.039Z,23.23
2018-09-06T04:51:19.861Z,21.93
2018-09-06T04:53:54.666Z,24.50
2018-09-06T04:56:30.339Z,18.17
2018-09-06T04:59:05.125Z,20.13
2018-09-06T05:01:40.481Z,19.67
2018-09-06T05:04:15.260Z,20.97
2018-09-06T05:06:50.260Z,19.10
2018-09-06T05:09:25.111Z,21.50
2018-09-06T05:11:59.965Z,21.40
2018-09-06T05:14:34.660Z,21.10
2018-09-06T05:17:09.488Z,20.73
2018-09-06T05:19:44.391Z,20.30
2018-09-06T05:22:19.783Z,20.53
2018-09-06T05:24:54.530Z,20.93
2018-09-06T05:27:29.405Z,20.20
2018-09-06T05:30:04.193Z,20.90
2018-09-06T05:32:38.914Z,22.00
2018-09-06T05:35:13.918Z,20.67
2018-09-06T05:37:48.891Z,23.80
2018-09-06T05:40:23.783Z,22.30
2018-09-06T05:42:58.610Z,22.10
2018-09-06T05:45:33.448Z,21.07
2018-09-06T05:48:08.158Z,22.80
2018-09-06T05:50:43.346Z,21.90
2018-09-06T05:53:18.037Z,21.80
2018-09-06T05:55:52.906Z,21.63
2018-09-06T05:58:27.594Z,21.63
2018-09-06T06:01:02.318Z,20.80
2018-09-06T06:03:37.165Z,21.77
2018-09-06T06:06:12.812Z,20.90
2018-09-06T06:08:49.805Z,20.53
2018-09-06T06:11:24.624Z,19.80
2018-09-06T06:13:59.906Z,21.53
2018-09-06T06:16:34.706Z,21.37
2018-09-06T06:19:09.494Z,20.57
2018-09-06T06:21:44.424Z,22.27
2018-09-06T06:24:19.251Z,21.63
2018-09-06T06:26:54.183Z,22.07
2018-09-06T06:29:28.962Z,23.10
2018-09-06T06:32:03.825Z,24.37
2018-09-06T06:34:38.998Z,22.77
2018-09-06T06:37:14.786Z,22.90
2018-09-06T06:39:49.816Z,23.40
2018-09-06T06:42:24.736Z,24.03
2018-09-06T06:44:59.533Z,23.90
2018-09-06T06:47:34.858Z,23.33
2018-09-06T06:50:10.453Z,23.33
2018-09-06T06:52:45.599Z,22.50
2018-09-06T06:55:20.216Z,23.20
2018-09-06T06:57:55.967Z,22.13
2018-09-06T07:00:35.420Z,21.47
2018-09-06T07:03:12.597Z,21.73
2018-09-06T07:05:47.691Z,22.00
2018-09-06T07:08:22.457Z,20.43
2018-09-06T07:10:57.153Z,20.43
2018-09-06T07:13:31.809Z,19.80
2018-09-06T07:16:06.534Z,18.23
2018-09-06T07:18:41.406Z,19.70
2018-09-06T07:21:16.369Z,19.35
2018-09-06T07:23:51.285Z,18.97
2018-09-06T07:26:26.654Z,19.17
2018-09-06T07:29:01.965Z,19.65
2018-09-06T07:31:37.413Z,19.30
2018-09-06T07:34:12.741Z,19.60
2018-09-06T07:36:48.187Z,18.32
2018-09-06T07:39:24.041Z,19.05
2018-09-06T07:41:59.378Z,19.20
2018-09-06T07:44:34.651Z,18.23
2018-09-06T07:47:10.165Z,17.80
2018-09-06T07:49:45.615Z,17.25
2018-09-06T07:52:21.110Z,16.52
2018-09-06T07:54:57.412Z,16.93
2018-09-06T07:57:32.784Z,16.30
2018-09-06T08:00:08.507Z,15.90
2018-09-06T08:02:44.326Z,16.23
2018-09-06T08:05:19.518Z,15.45
2018-09-06T08:07:55.256Z,14.85
2018-09-06T08:10:30.641Z,14.65
2018-09-06T08:13:06.147Z,15.40
2018-09-06T08:15:41.473Z,15.43
2018-09-06T08:18:16.827Z,15.48
2018-09-06T08:20:52.881Z,14.85
2018-09-06T08:23:28.363Z,14.63
2018-09-06T08:26:03.751Z,13.88
2018-09-06T08:28:39.163Z,12.85
2018-09-06T08:31:15.026Z,13.85
2018-09-06T08:33:51.210Z,13.38
2018-09-06T08:36:27.129Z,13.22
2018-09-06T08:39:02.725Z,13.40
2018-09-06T08:41:38.763Z,12.73
2018-09-06T08:44:14.157Z,12.53
2018-09-06T08:46:49.553Z,12.23
2018-09-06T08:49:25.089Z,12.80
2018-09-06T08:52:00.719Z,11.83
2018-09-06T08:54:36.679Z,12.18
2018-09-06T08:57:13.029Z,12.00
2018-09-06T08:59:48.485Z,11.73
2018-09-06T09:02:24.222Z,12.60
2018-09-06T09:05:00.021Z,10.82
2018-09-06T09:07:35.463Z,11.10
2018-09-06T09:10:10.926Z,11.12
2018-09-06T09:12:46.415Z,10.45
2018-09-06T09:15:21.905Z,10.65
2018-09-06T09:17:57.348Z,11.10
2018-09-06T09:20:33.386Z,11.38
2018-09-06T09:23:09.032Z,11.85
2018-09-06T09:25:44.858Z,11.70
2018-09-06T09:28:20.127Z,11.00
2018-09-06T09:30:55.457Z,10.35
2018-09-06T09:33:31.030Z,10.13
2018-09-06T09:36:06.429Z,10.00
2018-09-06T09:38:41.716Z,9.77
2018-09-06T09:41:17.113Z,10.08
2018-09-06T09:43:52.237Z,8.63
2018-09-06T09:49:02.393Z,9.15
2018-09-06T09:51:37.873Z,8.15
2018-09-06T09:54:13.262Z,7.53
2018-09-06T09:56:48.518Z,7.30
2018-09-06T09:59:23.629Z,7.33
2018-09-06T10:02:04.178Z,7.27
2018-09-06T10:04:43.495Z,8.50
2018-09-06T10:07:24.518Z,9.00
2018-09-06T10:09:59.648Z,8.60
2018-09-06T10:12:34.701Z,8.37
2018-09-06T10:15:09.936Z,7.77
2018-09-06T10:17:45.581Z,8.03
2018-09-06T10:20:20.655Z,7.93
2018-09-06T10:22:55.739Z,7.70
2018-09-06T10:25:31.004Z,7.90
2018-09-06T10:28:06.246Z,8.00
2018-09-06T10:30:41.605Z,7.90
2018-09-06T10:33:16.531Z,8.73
2018-09-06T10:35:51.870Z,8.37
2018-09-06T10:38:27.883Z,7.20
2018-09-06T10:41:03.057Z,6.73
2018-09-06T10:43:38.813Z,6.47
2018-09-06T10:46:14.247Z,6.17
2018-09-06T10:48:49.469Z,9.43
2018-09-06T10:51:24.494Z,6.23
2018-09-06T10:53:59.681Z,13.40
2018-09-06T10:56:34.875Z,7.13
2018-09-06T10:59:10.414Z,6.20
2018-09-06T11:01:46.213Z,10.27
2018-09-06T11:04:21.284Z,11.67
2018-09-06T11:06:56.758Z,7.83
2018-09-06T11:09:31.878Z,7.70
2018-09-06T11:12:07.005Z,6.23
2018-09-06T11:14:42.198Z,5.93
2018-09-06T11:17:17.302Z,5.80
2018-09-06T11:19:52.384Z,7.07
2018-09-06T11:22:27.564Z,7.57
2018-09-06T11:25:02.803Z,9.90
2018-09-06T11:27:37.929Z,9.60
2018-09-06T11:30:13.555Z,7.10
2018-09-06T11:32:48.623Z,6.93
2018-09-06T11:35:25.205Z,6.63
2018-09-06T11:38:00.460Z,6.90
2018-09-06T11:40:35.706Z,6.00
2018-09-06T11:43:10.912Z,6.77
2018-09-06T11:45:46.083Z,6.70
2018-09-06T11:48:21.163Z,6.20
2018-09-06T11:50:56.301Z,6.13
2018-09-06T11:53:32.106Z,6.13
2018-09-06T11:56:07.990Z,6.30
2018-09-06T11:58:43.073Z,6.70
2018-09-06T12:01:18.194Z,6.57
2018-09-06T12:03:53.170Z,7.23
2018-09-06T12:06:28.288Z,6.43
2018-09-06T12:09:04.399Z,5.90
2018-09-06T12:11:39.934Z,5.70
2018-09-06T12:14:15.576Z,6.00
2018-09-06T12:16:51.045Z,5.92
2018-09-06T12:19:26.469Z,5.97
2018-09-06T12:22:02.445Z,5.75
2018-09-06T12:24:37.797Z,6.45
2018-09-06T12:27:19.840Z,6.35
2018-09-06T12:29:55.257Z,5.78
2018-09-06T12:32:30.870Z,5.12
2018-09-06T12:35:06.857Z,5.10
2018-09-06T12:37:42.344Z,5.05
2018-09-06T12:40:17.941Z,5.67
2018-09-06T12:42:53.370Z,5.62
2018-09-06T12:45:29.034Z,5.33
2018-09-06T12:48:04.975Z,5.60
2018-09-06T12:50:40.677Z,5.17
2018-09-06T12:53:16.271Z,5.60
2018-09-06T12:55:52.078Z,5.75
2018-09-06T12:58:27.361Z,5.47
2018-09-06T13:01:02.389Z,5.30
2018-09-06T13:03:37.435Z,5.23
2018-09-06T13:06:12.581Z,5.30
2018-09-06T13:08:47.713Z,5.13
2018-09-06T13:11:22.942Z,5.30
2018-09-06T13:13:58.268Z,5.07
2018-09-06T13:16:33.373Z,5.20
2018-09-06T13:19:08.566Z,5.73
2018-09-06T13:21:43.815Z,5.03
2018-09-06T13:24:18.924Z,5.30
2018-09-06T13:26:54.029Z,5.20
2018-09-06T13:29:28.977Z,5.33
2018-09-06T13:32:04.111Z,5.40
2018-09-06T13:34:39.303Z,4.83
2018-09-06T13:37:14.485Z,5.10
2018-09-06T13:39:49.613Z,5.13
2018-09-06T13:42:25.513Z,4.70
2018-09-06T13:45:00.552Z,4.67
2018-09-06T13:47:35.785Z,4.90
2018-09-06T13:50:10.998Z,4.93
2018-09-06T13:52:46.059Z,4.77
2018-09-06T13:55:22.478Z,4.70
2018-09-06T13:57:57.561Z,4.90
2018-09-06T14:00:32.609Z,5.28
2018-09-06T14:03:08.133Z,4.97
2018-09-06T14:05:44.150Z,5.10
2018-09-06T14:08:19.642Z,5.35
2018-09-06T14:10:55.247Z,5.22
2018-09-06T14:13:30.632Z,5.05
2018-09-06T14:16:06.205Z,5.12
2018-09-06T14:18:41.462Z,4.92
2018-09-06T14:21:16.759Z,4.77
2018-09-06T14:23:51.881Z,4.67
2018-09-06T14:26:27.059Z,5.10
2018-09-06T14:29:02.072Z,5.10
2018-09-06T14:31:37.239Z,5.17
2018-09-06T14:34:13.368Z,4.50
2018-09-06T14:36:49.004Z,4.30
2018-09-06T14:39:24.319Z,4.40
2018-09-06T14:41:59.658Z,4.90
2018-09-06T14:44:35.254Z,4.90
2018-09-06T14:47:10.833Z,4.40
2018-09-06T14:49:46.598Z,4.80
2018-09-06T14:52:22.302Z,4.90
2018-09-06T14:54:57.659Z,4.50
2018-09-06T14:57:33.137Z,4.83
2018-09-06T15:00:09.398Z,4.72
2018-09-06T15:02:44.835Z,4.75
2018-09-06T15:05:20.495Z,4.80
2018-09-06T15:07:56.017Z,4.50
2018-09-06T15:10:31.675Z,5.08
2018-09-06T15:13:07.697Z,4.80
2018-09-06T15:15:43.129Z,4.58
2018-09-06T15:18:18.576Z,4.55
2018-09-06T15:20:54.052Z,4.42
2018-09-06T15:23:29.350Z,4.90
2018-09-06T15:26:05.183Z,4.45
2018-09-06T15:28:40.762Z,4.42
2018-09-06T15:31:16.134Z,5.22
2018-09-06T15:33:52.091Z,5.05
2018-09-06T15:36:27.421Z,5.12
2018-09-06T15:39:04.173Z,5.10
2018-09-06T15:41:43.247Z,4.80
2018-09-06T15:44:18.635Z,4.80
2018-09-06T15:46:54.062Z,4.85
2018-09-06T15:49:29.723Z,5.30
2018-09-06T15:52:05.283Z,4.80
2018-09-06T15:54:40.923Z,4.78
2018-09-06T15:57:16.409Z,5.00
2018-09-06T15:59:51.820Z,5.40
2018-09-06T16:02:27.149Z,4.97
2018-09-06T16:05:03.083Z,5.00
2018-09-06T16:07:38.555Z,5.03
2018-09-06T16:10:14.158Z,5.25
2018-09-06T16:12:49.723Z,4.85
2018-09-06T16:15:25.168Z,4.70
2018-09-06T16:18:00.630Z,5.15
2018-09-06T16:20:36.026Z,5.25
2018-09-06T16:23:11.329Z,4.58
2018-09-06T16:25:46.782Z,4.75
2018-09-06T16:28:22.063Z,4.95
2018-09-06T16:30:57.505Z,5.08
2018-09-06T16:33:32.739Z,5.58
2018-09-06T16:36:08.272Z,6.20
2018-09-06T16:38:44.034Z,5.62
2018-09-06T16:41:19.378Z,6.45
2018-09-06T16:43:54.720Z,5.85
2018-09-06T16:46:30.088Z,6.30
2018-09-06T16:49:06.209Z,6.45
2018-09-06T16:51:42.010Z,6.60
2018-09-06T16:54:17.497Z,6.58
2018-09-06T16:56:53.121Z,6.40
2018-09-06T16:59:29.503Z,6.87
2018-09-06T17:02:05.060Z,6.40
2018-09-06T17:04:40.364Z,6.40
2018-09-06T17:07:16.374Z,6.60
2018-09-06T17:09:51.767Z,6.65
2018-09-06T17:12:27.154Z,6.47
2018-09-06T17:15:03.541Z,7.15
2018-09-06T17:17:39.269Z,6.60
2018-09-06T17:20:14.821Z,6.20
2018-09-06T17:22:50.664Z,5.83
2018-09-06T17:25:26.700Z,5.80
2018-09-06T17:28:02.703Z,5.60
2018-09-06T17:30:38.706Z,5.92
2018-09-06T17:33:14.371Z,5.30
2018-09-06T17:35:50.253Z,4.72
2018-09-06T17:38:26.006Z,4.62
2018-09-06T17:41:01.620Z,4.70
2018-09-06T17:43:37.124Z,4.85
2018-09-06T17:46:12.831Z,4.97
2018-09-06T17:48:48.188Z,5.53
2018-09-06T17:51:23.657Z,5.47
2018-09-06T17:53:59.390Z,5.45
2018-09-06T17:56:35.440Z,5.45
2018-09-06T17:59:11.058Z,5.72
2018-09-06T18:01:47.043Z,6.20
2018-09-06T18:04:22.735Z,6.30
2018-09-06T18:06:58.070Z,5.80
2018-09-06T18:09:33.666Z,6.70
2018-09-06T18:12:09.531Z,7.22
2018-09-06T18:14:44.964Z,6.95
2018-09-06T18:17:20.293Z,7.47
2018-09-06T18:19:55.958Z,7.35
2018-09-06T18:22:31.990Z,9.20
2018-09-06T18:25:07.570Z,10.55
2018-09-06T18:27:43.799Z,8.00
2018-09-06T18:30:20.190Z,8.08
2018-09-06T18:32:55.607Z,8.90
2018-09-06T18:35:31.123Z,8.55
2018-09-06T18:38:06.386Z,9.58
2018-09-06T18:40:42.054Z,7.97
2018-09-06T18:43:17.427Z,8.25
2018-09-06T18:45:52.864Z,8.25
2018-09-06T18:48:28.211Z,8.73
2018-09-06T18:51:03.661Z,8.90
2018-09-06T18:53:45.712Z,8.90
2018-09-06T18:56:21.145Z,8.65
2018-09-06T18:58:57.279Z,8.28
2018-09-06T19:01:33.341Z,8.53
2018-09-06T19:04:08.808Z,8.78
2018-09-06T19:06:44.136Z,8.73
2018-09-06T19:09:19.645Z,9.03
2018-09-06T19:11:55.493Z,8.78
2018-09-06T19:14:31.041Z,8.58
2018-09-06T19:17:06.520Z,8.55
2018-09-06T19:19:41.763Z,8.80
2018-09-06T19:22:17.241Z,8.53
2018-09-06T19:24:52.637Z,8.45
2018-09-06T19:27:28.274Z,9.13
2018-09-06T19:30:04.017Z,9.13
2018-09-06T19:32:39.544Z,8.95
2018-09-06T19:35:15.000Z,8.50
2018-09-06T19:37:50.483Z,9.28
2018-09-06T19:40:25.827Z,9.08
2018-09-06T19:43:01.233Z,9.73
2018-09-06T19:45:37.007Z,9.88
2018-09-06T19:48:12.456Z,9.58
2018-09-06T19:50:47.960Z,9.83
2018-09-06T19:53:23.500Z,10.15
2018-09-06T19:55:58.903Z,10.15
2018-09-06T19:58:34.476Z,10.13
2018-09-06T20:01:09.832Z,9.95
2018-09-06T20:03:45.360Z,9.73
2018-09-06T20:06:20.716Z,11.63
2018-09-06T20:08:56.291Z,10.25
2018-09-06T20:11:31.796Z,10.35
2018-09-06T20:14:07.557Z,9.95
2018-09-06T20:16:42.843Z,10.63
2018-09-06T20:19:18.538Z,10.35
2018-09-06T20:21:53.973Z,10.05
2018-09-06T20:24:29.444Z,10.68
2018-09-06T20:27:04.914Z,9.93
2018-09-06T20:29:41.973Z,10.28
2018-09-06T20:32:17.558Z,10.50
2018-09-06T20:34:53.110Z,10.65
2018-09-06T20:37:28.342Z,11.35
2018-09-06T20:40:04.249Z,10.30
2018-09-06T20:42:39.496Z,10.95
2018-09-06T20:45:14.864Z,10.50
2018-09-06T20:47:50.131Z,11.20
2018-09-06T20:50:25.673Z,10.85
2018-09-06T20:53:01.044Z,9.93
2018-09-06T20:55:36.535Z,11.00
2018-09-06T20:58:11.973Z,10.53
2018-09-06T21:00:48.111Z,10.63
2018-09-06T21:03:23.635Z,11.50
2018-09-06T21:05:59.200Z,11.18
2018-09-06T21:08:34.915Z,11.95
2018-09-06T21:11:10.703Z,10.98
2018-09-06T21:13:47.054Z,11.55
2018-09-06T21:16:22.619Z,12.47
2018-09-06T21:18:58.181Z,12.20
2018-09-06T21:21:33.686Z,10.40
2018-09-06T21:24:09.103Z,10.88
2018-09-06T21:26:43.890Z,11.20
2018-09-06T21:29:18.821Z,12.77
2018-09-06T21:31:54.323Z,10.32
2018-09-06T21:34:29.523Z,11.50
2018-09-06T21:37:04.918Z,11.10
2018-09-06T21:39:39.796Z,10.57
2018-09-06T21:42:14.592Z,10.13
2018-09-06T21:44:49.615Z,11.10
2018-09-06T21:47:24.663Z,10.70
2018-09-06T21:50:01.044Z,11.55
2018-09-06T21:52:35.881Z,12.03
2018-09-06T21:55:10.861Z,10.90
2018-09-06T21:57:45.678Z,11.17
2018-09-06T22:00:20.557Z,11.28
2018-09-06T22:03:01.264Z,11.00
2018-09-06T22:05:36.577Z,9.80
2018-09-06T22:08:11.482Z,10.88
2018-09-06T22:10:46.989Z,11.40
2018-09-06T22:13:22.322Z,10.28
2018-09-06T22:15:57.810Z,10.05
2018-09-06T22:18:32.849Z,10.45
2018-09-06T22:21:07.587Z,10.53
2018-09-06T22:23:42.889Z,10.55
2018-09-06T22:26:18.263Z,10.28
2018-09-06T22:28:52.964Z,10.57
2018-09-06T22:31:27.854Z,11.07
2018-09-06T22:34:02.765Z,10.53
2018-09-06T22:36:37.680Z,11.90
2018-09-06T22:39:13.111Z,11.40
2018-09-06T22:41:48.157Z,11.70
2018-09-06T22:44:23.012Z,12.63
2018-09-06T22:46:58.163Z,11.70
2018-09-06T22:49:32.863Z,12.17
2018-09-06T22:52:07.851Z,11.40
2018-09-06T22:54:42.675Z,12.10
2018-09-06T22:57:17.699Z,12.00
2018-09-06T22:59:52.638Z,12.63
2018-09-06T23:02:32.794Z,11.90
2018-09-06T23:05:07.728Z,12.07
2018-09-06T23:07:42.498Z,11.03
2018-09-06T23:10:17.490Z,12.00
2018-09-06T23:12:52.778Z,12.27
2018-09-06T23:15:28.054Z,12.17
2018-09-06T23:18:02.977Z,12.73
2018-09-06T23:20:37.747Z,13.13
2018-09-06T23:23:12.941Z,12.60
2018-09-06T23:25:47.694Z,12.50
2018-09-06T23:28:22.479Z,12.00
2018-09-06T23:30:57.426Z,11.33
2018-09-06T23:33:32.258Z,12.60
2018-09-06T23:36:07.089Z,12.40
2018-09-06T23:38:41.832Z,12.57
2018-09-06T23:41:16.758Z,12.53
2018-09-06T23:43:51.533Z,13.03
2018-09-06T23:46:26.301Z,11.77
2018-09-06T23:49:01.230Z,12.50
2018-09-06T23:51:36.076Z,11.73
2018-09-06T23:54:11.043Z,12.73
2018-09-06T23:56:45.809Z,12.17
2018-09-06T23:59:20.568Z,11.07
